Time;durP1;ratioP1;P1;durP2;ratioP2;P2;SDS_P1;SDS_P2;PMS_P1;PMS_P2;Temp;Humidity;BMP_temperature;BMP_pressure;BME280_temperature;BME280_humidity;BME280_pressure;Samples;Min_cycle;Max_cycle;Signal;HPM_P1;HPM_P2
2022/11/12 00:01:29;;;;;;;10.13;4.70;;;13.50;68.30;;;;;;6256727;28;20037;-77
2022/11/12 00:04:49;;;;;;;9.07;4.85;;;13.40;68.50;;;;;;6261177;28;20045;-79
2022/11/12 00:08:09;;;;;;;9.07;4.82;;;13.40;68.60;;;;;;6256647;28;20033;-79
2022/11/12 00:11:29;;;;;;;10.85;4.60;;;13.40;68.80;;;;;;6249196;28;20052;-79
2022/11/12 00:14:48;;;;;;;14.45;5.32;;;13.30;68.80;;;;;;6248426;28;20041;-79
2022/11/12 00:18:08;;;;;;;9.93;4.40;;;13.30;68.80;;;;;;6250895;28;20037;-79
2022/11/12 00:21:28;;;;;;;9.73;4.55;;;13.20;68.90;;;;;;6236798;28;20037;-79
2022/11/12 00:24:48;;;;;;;12.40;4.47;;;13.20;69.10;;;;;;6257158;28;20089;-79
2022/11/12 00:28:10;;;;;;;8.32;4.28;;;13.20;69.10;;;;;;6251755;28;20649;-79
2022/11/12 00:31:29;;;;;;;11.30;5.43;;;13.10;69.10;;;;;;6248036;28;20045;-79
2022/11/12 00:34:48;;;;;;;9.10;5.15;;;13.10;69.20;;;;;;6248991;28;20054;-79
2022/11/12 00:38:08;;;;;;;11.95;5.68;;;13.10;69.30;;;;;;6254192;28;20049;-78
2022/11/12 00:41:28;;;;;;;11.48;4.50;;;13.10;70.10;;;;;;6240713;28;20025;-79
2022/11/12 00:44:48;;;;;;;10.95;4.97;;;13.10;69.10;;;;;;6250786;28;20447;-77
2022/11/12 00:48:08;;;;;;;15.70;5.22;;;13.10;69.10;;;;;;6251359;28;20029;-79
2022/11/12 00:51:28;;;;;;;12.80;5.32;;;13.10;69.10;;;;;;6250922;28;20455;-77
2022/11/12 00:54:48;;;;;;;12.27;5.07;;;13.10;69.10;;;;;;6252026;28;20030;-78
2022/11/12 00:58:07;;;;;;;11.40;4.82;;;13.10;69.10;;;;;;6238071;28;20033;-78
2022/11/12 01:01:27;;;;;;;10.07;4.78;;;13.10;69.10;;;;;;6249268;28;20116;-78
2022/11/12 01:04:47;;;;;;;7.63;4.50;;;13.10;69.10;;;;;;6253722;28;20037;-78
2022/11/12 01:08:07;;;;;;;8.10;4.40;;;13.10;69.20;;;;;;6255812;28;20047;-79
2022/11/12 01:11:28;;;;;;;9.98;4.68;;;13.00;69.10;;;;;;6235892;28;20370;-78
2022/11/12 01:14:48;;;;;;;19.15;4.50;;;13.00;69.20;;;;;;6234791;28;20041;-78
2022/11/12 01:18:08;;;;;;;8.85;4.55;;;13.10;69.30;;;;;;6253364;28;20378;-77
2022/11/12 01:21:30;;;;;;;7.38;4.53;;;13.10;69.30;;;;;;6257728;28;20033;-78
2022/11/12 01:24:50;;;;;;;8.32;4.10;;;13.10;69.20;;;;;;6242366;28;20052;-78
2022/11/12 01:28:09;;;;;;;7.75;4.88;;;13.10;69.10;;;;;;6241446;28;20108;-78
2022/11/12 01:31:35;;;;;;;10.48;4.40;;;13.20;69.00;;;;;;6247253;28;20029;-78
2022/11/12 01:34:54;;;;;;;14.25;4.45;;;13.20;68.80;;;;;;6247658;28;20057;-78
2022/11/12 01:38:14;;;;;;;14.80;4.63;;;13.20;68.80;;;;;;6243323;28;20084;-78
2022/11/12 01:41:36;;;;;;;14.88;4.45;;;13.20;68.70;;;;;;6255134;28;20474;-78
2022/11/12 01:44:56;;;;;;;6.63;4.22;;;13.10;68.60;;;;;;6258661;28;20506;-79
2022/11/12 01:48:29;;;;;;;9.93;4.30;;;13.10;68.60;;;;;;6255588;28;20382;-78
2022/11/12 01:51:55;;;;;;;12.00;4.38;;;13.00;68.70;;;;;;6263272;28;20046;-78
2022/11/12 01:55:19;;;;;;;10.77;4.10;;;13.00;68.80;;;;;;6252763;28;20037;-78
2022/11/12 01:58:39;;;;;;;9.18;4.55;;;12.90;68.80;;;;;;6258288;28;20101;-78
2022/11/12 02:01:59;;;;;;;6.75;3.40;;;12.90;68.90;;;;;;6238715;28;20041;-78
2022/11/12 02:05:21;;;;;;;8.23;4.22;;;12.90;69.00;;;;;;6237939;28;20455;-79
2022/11/12 02:08:42;;;;;;;8.85;4.05;;;12.80;69.00;;;;;;6257132;28;20446;-79
2022/11/12 02:12:02;;;;;;;9.43;4.93;;;12.80;69.10;;;;;;6247903;28;20037;-79
2022/11/12 02:15:21;;;;;;;11.05;3.90;;;12.70;69.10;;;;;;6254779;28;20123;-79
2022/11/12 02:18:41;;;;;;;11.85;4.38;;;12.70;69.30;;;;;;6241204;28;20041;-78
2022/11/12 02:22:01;;;;;;;10.63;5.07;;;12.60;69.30;;;;;;6255250;28;20052;-78
2022/11/12 02:25:23;;;;;;;13.32;3.70;;;12.60;69.50;;;;;;6254932;28;20034;-78
2022/11/12 02:28:43;;;;;;;11.65;4.28;;;12.60;69.70;;;;;;6259065;28;20033;-78
2022/11/12 02:32:03;;;;;;;12.07;4.70;;;12.60;69.80;;;;;;6250313;28;20050;-78
2022/11/12 02:35:22;;;;;;;12.93;5.28;;;12.60;69.80;;;;;;6255804;28;20125;-78
2022/11/12 02:38:42;;;;;;;14.60;5.18;;;12.50;69.80;;;;;;6244289;28;20033;-79
2022/11/12 02:42:02;;;;;;;6.30;3.90;;;12.50;69.70;;;;;;6243886;28;20032;-79
2022/11/12 02:45:22;;;;;;;10.07;4.13;;;12.40;69.70;;;;;;6256030;28;20476;-77
2022/11/12 02:48:41;;;;;;;8.80;4.03;;;12.40;69.90;;;;;;6255498;28;20033;-78
2022/11/12 02:52:01;;;;;;;7.00;4.43;;;12.30;69.60;;;;;;6245425;28;20033;-78
2022/11/12 02:55:20;;;;;;;8.02;4.07;;;12.30;69.70;;;;;;6256480;28;20037;-78
2022/11/12 02:58:40;;;;;;;14.50;4.53;;;12.20;69.80;;;;;;6241906;28;20354;-78
2022/11/12 03:02:00;;;;;;;8.90;3.75;;;12.20;69.90;;;;;;6252574;28;20041;-78
2022/11/12 03:05:19;;;;;;;8.93;4.38;;;12.20;69.90;;;;;;6241849;28;20049;-78
2022/11/12 03:08:39;;;;;;;9.02;4.20;;;12.20;69.90;;;;;;6242180;28;20625;-77
2022/11/12 03:11:59;;;;;;;11.88;3.85;;;12.30;69.80;;;;;;6238358;28;20037;-79
2022/11/12 03:15:19;;;;;;;8.73;4.15;;;12.30;69.80;;;;;;6247029;28;20049;-79
2022/11/12 03:18:39;;;;;;;12.82;4.60;;;12.30;69.60;;;;;;6256418;28;20049;-79
2022/11/12 03:21:58;;;;;;;8.82;3.95;;;12.20;69.60;;;;;;6238646;28;20037;-78
2022/11/12 03:25:18;;;;;;;10.57;4.05;;;12.20;69.80;;;;;;6239391;28;20514;-77
2022/11/12 03:28:38;;;;;;;9.23;4.22;;;12.10;69.90;;;;;;6240425;28;20029;-77
2022/11/12 03:31:57;;;;;;;9.98;4.07;;;12.20;69.80;;;;;;6253567;28;20041;-78
2022/11/12 03:35:17;;;;;;;10.57;4.07;;;12.20;69.80;;;;;;6254568;28;20412;-78
2022/11/12 03:38:36;;;;;;;8.30;3.53;;;12.10;69.90;;;;;;6244618;28;20033;-77
2022/11/12 03:41:56;;;;;;;7.45;4.18;;;12.20;70.00;;;;;;6241735;28;20046;-78
2022/11/12 03:45:17;;;;;;;12.27;4.53;;;12.20;70.00;;;;;;6256281;28;20132;-79
2022/11/12 03:48:37;;;;;;;7.43;3.65;;;12.20;70.00;;;;;;6241142;28;20037;-78
2022/11/12 03:51:56;;;;;;;7.82;4.00;;;12.20;69.90;;;;;;6248837;28;20045;-80
2022/11/12 03:55:18;;;;;;;10.70;3.90;;;12.20;69.90;;;;;;6243065;28;20022;-79
2022/11/12 03:58:38;;;;;;;15.38;4.18;;;12.20;69.90;;;;;;6261608;28;20026;-79
2022/11/12 04:01:57;;;;;;;6.85;3.65;;;12.20;69.90;;;;;;6257415;28;20081;-79
2022/11/12 04:08:56;;;;;;;9.25;4.05;;;12.20;69.90;;;;;;6259768;28;20116;-79
2022/11/12 04:23:19;;;;;;;9.55;3.90;;;12.20;69.90;;;;;;6255398;28;20037;-79
2022/11/12 04:26:38;;;;;;;8.18;3.90;;;12.10;69.70;;;;;;6242464;28;20038;-78
2022/11/12 04:30:18;;;;;;;11.25;3.90;;;12.10;70.60;;;;;;6249614;28;20045;-79
2022/11/12 04:33:37;;;;;;;10.77;4.00;;;12.10;69.70;;;;;;6252193;28;20045;-78
2022/11/12 04:36:57;;;;;;;5.47;3.30;;;12.10;69.80;;;;;;6252229;28;20037;-79
2022/11/12 04:47:39;;;;;;;5.68;3.42;;;12.00;69.70;;;;;;6257473;28;20041;-78
2022/11/12 04:51:02;;;;;;;9.82;4.15;;;12.00;69.60;;;;;;6254082;28;20042;-78
2022/11/12 04:54:21;;;;;;;9.15;3.97;;;12.00;69.70;;;;;;6257458;28;20351;-78
2022/11/12 04:57:41;;;;;;;6.55;3.80;;;11.90;69.80;;;;;;6248514;28;20033;-78
2022/11/12 05:01:02;;;;;;;9.48;3.97;;;11.90;69.80;;;;;;6259219;28;20033;-79
2022/11/12 05:04:22;;;;;;;8.77;4.10;;;11.90;69.90;;;;;;6240673;28;20155;-77
2022/11/12 05:07:41;;;;;;;6.95;3.40;;;11.90;69.90;;;;;;6257769;28;20033;-77
2022/11/12 05:11:01;;;;;;;6.72;3.88;;;11.90;70.00;;;;;;6238861;28;20370;-78
2022/11/12 05:14:21;;;;;;;8.23;4.05;;;11.90;69.80;;;;;;6242836;28;20029;-78
2022/11/12 05:17:44;;;;;;;7.25;3.95;;;11.90;69.80;;;;;;6251940;28;20458;-78
2022/11/12 05:22:04;;;;;;;7.03;4.18;;;11.90;69.80;;;;;;6256612;28;20061;-78
2022/11/12 05:24:43;;;;;;;8.85;3.80;;;11.90;69.80;;;;;;6260658;28;20033;-78
2022/11/12 05:28:03;;;;;;;7.63;3.97;;;11.90;69.60;;;;;;6257127;28;20030;-79
2022/11/12 05:31:22;;;;;;;6.60;3.63;;;11.90;69.50;;;;;;6258708;28;20409;-79
2022/11/12 05:34:42;;;;;;;9.95;4.30;;;11.80;69.40;;;;;;6256673;28;20448;-79
2022/11/12 05:38:01;;;;;;;10.68;3.10;;;11.80;69.50;;;;;;6253717;28;20069;-79
2022/11/12 05:41:21;;;;;;;9.13;3.35;;;11.80;69.50;;;;;;6254223;28;20028;-79
2022/11/12 05:44:41;;;;;;;5.10;3.17;;;11.80;69.50;;;;;;6257205;28;20032;-78
2022/11/12 05:48:00;;;;;;;6.85;3.00;;;11.70;69.60;;;;;;6234847;28;20040;-78
2022/11/12 05:51:20;;;;;;;6.95;3.38;;;11.70;69.60;;;;;;6245398;28;20033;-79
2022/11/12 05:54:40;;;;;;;5.15;2.97;;;11.60;69.60;;;;;;6257730;28;20042;-79
2022/11/12 05:58:04;;;;;;;7.22;3.70;;;11.70;69.90;;;;;;6256273;28;20530;-79
2022/11/12 06:01:23;;;;;;;7.25;3.33;;;11.70;69.90;;;;;;6257157;28;20386;-77
2022/11/12 06:04:43;;;;;;;5.68;2.90;;;11.70;69.90;;;;;;6244071;28;20033;-78
2022/11/12 06:08:04;;;;;;;8.90;3.10;;;11.70;69.80;;;;;;6255162;28;20041;-78
2022/11/12 06:11:23;;;;;;;9.60;3.55;;;11.70;69.70;;;;;;6254999;28;20104;-78
2022/11/12 06:14:43;;;;;;;7.40;3.13;;;11.70;69.70;;;;;;6254770;28;20412;-78
2022/11/12 06:18:03;;;;;;;5.85;3.40;;;11.60;69.60;;;;;;6254120;28;20393;-79
2022/11/12 06:21:26;;;;;;;8.40;3.67;;;11.60;69.60;;;;;;6246376;28;20029;-78
2022/11/12 06:24:46;;;;;;;5.82;3.45;;;11.60;69.70;;;;;;6250580;28;20037;-79
2022/11/12 06:28:05;;;;;;;6.22;3.22;;;11.50;69.70;;;;;;6259332;28;20037;-78
2022/11/12 06:31:25;;;;;;;7.40;3.72;;;11.50;69.80;;;;;;6253990;28;20037;-78
2022/11/12 06:34:45;;;;;;;4.80;3.22;;;11.50;69.80;;;;;;6238911;28;20065;-78
2022/11/12 06:38:06;;;;;;;6.30;4.20;;;11.50;69.90;;;;;;6252629;28;20042;-78
2022/11/12 06:41:26;;;;;;;5.72;3.33;;;11.50;69.80;;;;;;6243139;28;20034;-78
2022/11/12 06:44:46;;;;;;;5.85;3.25;;;11.50;69.70;;;;;;6241372;28;20072;-78
2022/11/12 06:48:05;;;;;;;6.45;3.67;;;11.40;69.60;;;;;;6237651;28;20041;-78
2022/11/12 06:51:25;;;;;;;11.40;3.13;;;11.40;69.70;;;;;;6253966;28;20558;-78
2022/11/12 06:54:44;;;;;;;6.78;3.47;;;11.40;69.80;;;;;;6260970;28;20359;-78
2022/11/12 06:58:04;;;;;;;9.25;3.30;;;11.50;69.70;;;;;;6251112;28;20034;-78
2022/11/12 07:01:24;;;;;;;6.97;3.65;;;11.40;69.50;;;;;;6260365;28;20053;-78
2022/11/12 07:04:44;;;;;;;13.20;3.80;;;11.40;69.50;;;;;;6249386;28;20033;-78
2022/11/12 07:08:05;;;;;;;8.50;3.25;;;11.40;69.50;;;;;;6256976;28;20053;-78
2022/11/12 07:11:24;;;;;;;6.65;3.65;;;11.30;69.60;;;;;;6257224;28;20033;-79
2022/11/12 07:14:44;;;;;;;8.77;2.85;;;11.40;69.80;;;;;;6252757;28;20033;-81
2022/11/12 07:18:04;;;;;;;7.00;3.45;;;11.40;69.70;;;;;;6241523;28;20033;-78
2022/11/12 07:21:24;;;;;;;7.25;3.53;;;11.40;69.60;;;;;;6259140;28;20029;-79
2022/11/12 07:24:44;;;;;;;7.85;3.83;;;11.40;69.40;;;;;;6251969;28;20125;-80
2022/11/12 07:28:04;;;;;;;7.25;3.58;;;11.40;69.40;;;;;;6257662;28;20373;-80
2022/11/12 07:31:24;;;;;;;6.53;3.75;;;11.40;69.40;;;;;;6256116;28;20033;-79
2022/11/12 07:34:44;;;;;;;8.48;4.32;;;11.50;69.40;;;;;;6253566;28;20037;-78
2022/11/12 07:38:03;;;;;;;8.32;3.65;;;11.50;69.30;;;;;;6246383;28;20463;-79
2022/11/12 07:41:24;;;;;;;6.43;3.47;;;11.50;69.30;;;;;;6255890;28;20036;-78
2022/11/12 07:44:44;;;;;;;9.68;3.90;;;11.50;69.20;;;;;;6238583;28;20041;-82
2022/11/12 07:48:04;;;;;;;7.43;3.63;;;11.50;69.30;;;;;;6243462;28;20128;-82
2022/11/12 07:51:28;;;;;;;5.95;3.28;;;11.60;69.20;;;;;;6253186;28;20029;-81
2022/11/12 07:54:47;;;;;;;8.73;2.97;;;11.60;69.00;;;;;;6230753;28;20045;-81
2022/11/12 07:58:07;;;;;;;6.82;3.50;;;11.60;68.80;;;;;;6242692;28;20057;-81
2022/11/12 08:01:30;;;;;;;9.15;3.72;;;11.60;68.70;;;;;;6251026;28;20108;-81
2022/11/12 08:04:49;;;;;;;7.32;4.05;;;11.60;68.70;;;;;;6233838;28;20049;-79
2022/11/12 08:08:10;;;;;;;7.93;4.03;;;11.70;69.70;;;;;;6261306;28;20444;-81
2022/11/12 08:11:30;;;;;;;7.20;3.40;;;11.70;68.70;;;;;;6252084;28;20033;-80
2022/11/12 08:14:49;;;;;;;6.65;3.72;;;11.70;68.50;;;;;;6254130;28;20029;-80
2022/11/12 08:18:09;;;;;;;8.60;3.78;;;11.70;68.50;;;;;;6258789;28;20029;-80
2022/11/12 08:21:28;;;;;;;6.78;3.30;;;11.80;68.60;;;;;;6253534;28;20036;-80
2022/11/12 08:24:48;;;;;;;6.18;3.15;;;11.80;68.60;;;;;;6250549;28;20076;-80
2022/11/12 08:28:08;;;;;;;7.43;3.40;;;11.90;68.30;;;;;;6243106;28;20041;-80
2022/11/12 08:31:27;;;;;;;11.98;3.78;;;11.90;68.20;;;;;;6257159;28;20036;-79
2022/11/12 08:34:47;;;;;;;8.02;3.25;;;11.90;68.20;;;;;;6255651;28;20049;-79
2022/11/12 08:38:09;;;;;;;10.40;3.17;;;12.00;68.30;;;;;;6243297;28;20037;-80
2022/11/12 08:41:29;;;;;;;6.38;3.28;;;12.00;68.30;;;;;;6248693;28;20025;-78
2022/11/12 08:44:48;;;;;;;8.73;4.13;;;12.10;68.20;;;;;;6257936;28;20044;-79
2022/11/12 08:48:13;;;;;;;9.25;4.10;;;12.20;68.10;;;;;;6240811;28;20041;-80
2022/11/12 08:51:32;;;;;;;8.60;3.15;;;12.30;67.90;;;;;;6267602;28;20037;-80
2022/11/12 08:54:52;;;;;;;10.50;3.70;;;12.50;67.60;;;;;;6276280;28;20025;-80
2022/11/12 08:58:11;;;;;;;8.35;3.78;;;12.50;67.10;;;;;;6245266;28;20026;-80
2022/11/12 09:01:31;;;;;;;7.40;3.70;;;12.60;67.20;;;;;;6265566;28;20057;-82
2022/11/12 09:04:51;;;;;;;6.60;4.20;;;12.80;67.00;;;;;;6248157;28;20064;-81
2022/11/12 09:08:14;;;;;;;7.35;4.63;;;12.90;66.50;;;;;;6264575;28;20040;-81
2022/11/12 09:11:33;;;;;;;9.40;4.68;;;12.90;66.10;;;;;;6251876;28;20033;-80
2022/11/12 09:14:54;;;;;;;12.32;4.40;;;12.90;65.90;;;;;;6238972;28;20115;-80
2022/11/12 09:18:16;;;;;;;9.23;4.38;;;13.00;65.90;;;;;;6263631;28;20037;-81
2022/11/12 09:21:36;;;;;;;11.35;4.55;;;13.10;65.70;;;;;;6248343;28;20033;-83
2022/11/12 09:24:55;;;;;;;7.70;4.35;;;13.10;65.30;;;;;;6258794;28;20029;-82
2022/11/12 09:28:17;;;;;;;6.78;4.50;;;13.20;65.30;;;;;;6256538;28;20028;-83
2022/11/12 09:31:36;;;;;;;14.70;5.40;;;13.30;65.00;;;;;;6256657;28;20339;-82
2022/11/12 09:34:56;;;;;;;13.18;6.90;;;13.30;64.80;;;;;;6255067;28;20046;-82
2022/11/12 09:38:17;;;;;;;15.85;5.68;;;13.20;64.80;;;;;;6256602;28;20046;-82
2022/11/12 09:41:38;;;;;;;12.80;5.50;;;13.30;66.10;;;;;;6254863;28;20033;-81
2022/11/12 09:45:12;;;;;;;8.02;4.55;;;13.40;65.40;;;;;;6253879;28;20033;-81
2022/11/12 09:48:39;;;;;;;13.07;5.07;;;13.60;65.20;;;;;;6248533;28;20454;-82
2022/11/12 09:52:04;;;;;;;8.15;4.90;;;13.70;65.00;;;;;;6257146;28;20037;-82
2022/11/12 09:55:38;;;;;;;10.10;5.05;;;13.90;64.50;;;;;;6231155;28;20026;-80
2022/11/12 09:58:58;;;;;;;9.38;5.03;;;14.20;64.20;;;;;;6257739;28;20354;-80
2022/11/12 10:02:51;;;;;;;10.55;4.97;;;14.30;63.50;;;;;;6252743;28;20112;-79
2022/11/12 10:06:21;;;;;;;9.32;5.65;;;14.50;63.40;;;;;;6253961;28;20037;-80
2022/11/12 10:10:25;;;;;;;9.88;5.82;;;14.70;62.70;;;;;;6256139;28;20038;-75
2022/11/12 10:14:02;;;;;;;10.00;6.20;;;14.80;62.60;;;;;;6167569;28;20246;-78
2022/11/12 10:17:53;;;;;;;17.73;6.05;;;15.10;62.30;;;;;;6184033;28;20038;-77
2022/11/12 10:21:25;;;;;;;12.32;5.25;;;15.30;61.90;;;;;;6167751;28;20122;-78
2022/11/12 10:24:47;;;;;;;7.70;4.95;;;15.50;61.40;;;;;;6180494;28;20030;-77
2022/11/12 10:28:32;;;;;;;11.38;5.22;;;15.80;61.00;;;;;;6183917;28;20046;-79
2022/11/12 10:31:53;;;;;;;11.23;6.50;;;16.00;60.10;;;;;;6172943;28;20097;-82
2022/11/12 10:35:16;;;;;;;15.50;6.28;;;16.20;59.50;;;;;;6174423;28;20752;-82
2022/11/12 10:38:37;;;;;;;15.82;5.47;;;16.30;59.30;;;;;;6181122;28;20054;-82
2022/11/12 10:42:07;;;;;;;14.27;5.60;;;16.50;59.10;;;;;;6163629;28;20046;-82
2022/11/12 10:45:27;;;;;;;10.23;5.88;;;16.70;58.70;;;;;;6252443;28;20466;-83
2022/11/12 10:48:56;;;;;;;10.23;5.60;;;16.90;58.20;;;;;;6259086;28;20415;-84
2022/11/12 10:52:21;;;;;;;28.92;5.72;;;17.00;57.30;;;;;;6252295;28;20048;-82
2022/11/12 10:55:56;;;;;;;13.82;6.18;;;17.10;57.40;;;;;;6242909;28;20029;-81
2022/11/12 10:59:19;;;;;;;16.63;7.03;;;17.40;57.00;;;;;;6222424;28;20463;-86
2022/11/12 11:02:55;;;;;;;9.23;5.35;;;17.60;56.50;;;;;;6236824;28;20038;-83
2022/11/12 11:06:15;;;;;;;16.33;6.72;;;17.70;55.50;;;;;;6237585;28;20037;-79
2022/11/12 11:09:34;;;;;;;7.82;4.88;;;17.70;55.50;;;;;;6245103;28;20128;-79
2022/11/12 11:13:26;;;;;;;11.05;5.30;;;17.90;55.50;;;;;;6251597;28;20042;-79
2022/11/12 11:16:55;;;;;;;10.25;6.00;;;18.10;55.30;;;;;;6181716;28;20118;-78
2022/11/12 11:20:44;;;;;;;9.15;5.72;;;18.40;54.80;;;;;;6178872;28;20412;-79
2022/11/12 11:24:21;;;;;;;14.55;6.88;;;18.50;54.40;;;;;;6181965;28;20070;-78
2022/11/12 11:28:10;;;;;;;10.70;5.55;;;18.70;54.20;;;;;;6179169;28;20452;-79
2022/11/12 11:31:56;;;;;;;9.60;5.30;;;18.80;53.80;;;;;;6085323;29;20036;-78
2022/11/12 11:35:18;;;;;;;11.85;6.28;;;18.80;53.50;;;;;;6096778;29;20048;-79
2022/11/12 11:38:40;;;;;;;13.63;5.82;;;18.80;53.20;;;;;;6084500;29;20056;-79
2022/11/12 11:42:17;;;;;;;14.90;6.47;;;18.70;53.10;;;;;;6081330;29;20048;-78
2022/11/12 11:45:46;;;;;;;13.18;6.80;;;18.60;52.50;;;;;;6099219;29;20033;-83
2022/11/12 11:49:36;;;;;;;11.37;5.80;;;18.40;52.70;;;;;;6087166;29;20072;-83
2022/11/12 11:53:27;;;;;;;10.68;5.47;;;18.30;53.20;;;;;;6150200;28;20196;-82
2022/11/12 11:56:49;;;;;;;12.25;5.40;;;18.20;53.40;;;;;;6188616;28;20019;-85
2022/11/12 12:00:15;;;;;;;14.02;5.88;;;18.20;53.30;;;;;;6175413;28;20465;-85
2022/11/12 12:04:19;;;;;;;14.52;6.15;;;18.20;53.20;;;;;;6179567;28;20031;-84
2022/11/12 12:07:56;;;;;;;12.48;6.50;;;18.10;53.00;;;;;;6195435;28;20030;-83
2022/11/12 12:11:47;;;;;;;13.52;6.53;;;17.90;53.30;;;;;;6244245;28;20422;-81
2022/11/12 12:15:37;;;;;;;16.42;5.95;;;17.80;53.70;;;;;;6163624;28;20038;-82
2022/11/12 12:19:02;;;;;;;14.67;5.97;;;17.80;54.00;;;;;;6161249;28;20110;-81
2022/11/12 12:22:44;;;;;;;11.43;5.07;;;17.90;53.90;;;;;;6149309;28;20039;-86
2022/11/12 12:26:18;;;;;;;15.93;6.22;;;18.00;53.90;;;;;;6174073;28;20035;-90
2022/11/12 12:29:40;;;;;;;18.33;6.63;;;18.00;53.60;;;;;;6169167;28;20039;-89
2022/11/12 12:33:24;;;;;;;15.32;5.72;;;18.00;53.40;;;;;;6144635;28;20075;-87
2022/11/12 12:36:45;;;;;;;17.77;5.65;;;18.00;53.50;;;;;;6138461;29;20051;-90
2022/11/12 12:40:14;;;;;;;11.52;5.63;;;18.10;53.50;;;;;;6134563;29;20035;-91
2022/11/12 12:43:52;;;;;;;12.65;5.50;;;18.10;53.40;;;;;;6138874;29;20106;-87
2022/11/12 12:47:13;;;;;;;15.60;6.47;;;18.20;53.30;;;;;;6138054;29;20044;-84
2022/11/12 12:50:37;;;;;;;19.05;8.27;;;18.10;53.30;;;;;;6141059;28;20042;-87
2022/11/12 12:53:58;;;;;;;17.52;7.55;;;18.10;53.40;;;;;;6227964;28;20037;-77
2022/11/12 12:57:29;;;;;;;13.00;6.28;;;18.10;53.50;;;;;;6226012;28;20064;-81
2022/11/12 13:00:58;;;;;;;14.60;6.57;;;18.10;53.50;;;;;;6231135;28;20061;-80
2022/11/12 13:04:37;;;;;;;11.00;5.95;;;18.00;53.70;;;;;;6229783;28;20041;-79
2022/11/12 13:08:02;;;;;;;18.80;6.63;;;18.00;53.90;;;;;;6231313;28;20033;-81
2022/11/12 13:15:42;;;;;;;17.73;8.63;;;17.90;54.10;;;;;;6228759;28;20049;-81
2022/11/12 13:19:02;;;;;;;16.08;6.95;;;17.90;54.60;;;;;;6216181;28;20411;-80
2022/11/12 13:22:22;;;;;;;16.17;7.93;;;17.70;54.50;;;;;;6221422;28;20085;-81
2022/11/12 13:25:43;;;;;;;20.40;7.82;;;17.60;54.60;;;;;;6232229;28;20467;-80
2022/11/12 13:29:27;;;;;;;13.35;6.80;;;17.60;54.70;;;;;;6231485;28;20025;-81
2022/11/12 13:32:47;;;;;;;16.35;7.45;;;17.50;54.90;;;;;;6224943;28;20431;-80
2022/11/12 13:36:24;;;;;;;18.95;7.40;;;17.40;55.00;;;;;;6229338;28;20037;-80
2022/11/12 13:39:45;;;;;;;16.67;6.53;;;17.40;55.20;;;;;;6236915;28;20038;-81
2022/11/12 13:43:43;;;;;;;13.70;6.45;;;17.30;55.40;;;;;;6233198;28;20046;-81
2022/11/12 13:47:03;;;;;;;15.40;6.88;;;17.30;55.60;;;;;;6232909;28;20042;-82
2022/11/12 13:50:24;;;;;;;16.55;6.32;;;17.30;55.60;;;;;;6213465;28;20425;-81
2022/11/12 13:53:44;;;;;;;10.93;5.72;;;17.20;55.80;;;;;;6220807;28;20030;-81
2022/11/12 13:57:22;;;;;;;16.17;6.40;;;17.20;55.80;;;;;;6211031;28;20030;-81
2022/11/12 14:00:57;;;;;;;16.27;6.38;;;17.20;55.90;;;;;;6236788;28;20030;-80
2022/11/12 14:04:20;;;;;;;12.38;6.00;;;17.30;55.80;;;;;;6224708;28;20064;-81
2022/11/12 14:07:55;;;;;;;19.67;5.80;;;17.30;55.80;;;;;;6216458;28;20632;-81
2022/11/12 14:11:35;;;;;;;14.18;6.72;;;17.40;55.70;;;;;;6225217;28;20351;-81
2022/11/12 14:15:27;;;;;;;15.40;6.75;;;17.50;55.50;;;;;;6204185;28;20057;-80
2022/11/12 14:18:50;;;;;;;13.00;5.88;;;17.50;55.40;;;;;;6113896;29;20346;-80
2022/11/12 14:22:17;;;;;;;14.38;5.70;;;17.60;55.20;;;;;;6128924;29;20082;-81
2022/11/12 14:25:53;;;;;;;16.27;6.05;;;17.70;55.20;;;;;;6126333;28;20111;-81
2022/11/12 14:29:17;;;;;;;9.48;5.15;;;17.80;55.00;;;;;;6136239;29;20040;-80
2022/11/12 14:32:39;;;;;;;15.40;5.63;;;17.80;54.90;;;;;;6152793;29;20039;-80
2022/11/12 14:36:10;;;;;;;22.55;5.82;;;17.90;54.80;;;;;;6170820;28;20027;-82
2022/11/12 14:39:29;;;;;;;13.75;5.93;;;17.90;54.70;;;;;;6162746;28;20035;-81
2022/11/12 14:42:50;;;;;;;10.95;6.22;;;17.90;54.60;;;;;;6164235;28;20038;-82
2022/11/12 14:46:45;;;;;;;9.40;5.70;;;17.90;54.70;;;;;;6161236;28;20038;-83
2022/11/12 14:50:08;;;;;;;12.23;5.57;;;18.00;54.60;;;;;;6164925;28;20181;-82
2022/11/12 14:53:32;;;;;;;11.02;4.80;;;18.00;54.50;;;;;;6167426;28;20089;-82
2022/11/12 14:56:52;;;;;;;10.65;5.03;;;18.00;54.40;;;;;;6235921;28;20370;-81
2022/11/12 15:00:34;;;;;;;23.42;5.50;;;18.00;54.20;;;;;;6223087;28;20042;-81
2022/11/12 15:04:20;;;;;;;9.50;4.90;;;18.00;54.20;;;;;;6221859;28;20042;-80
2022/11/12 15:07:56;;;;;;;14.75;5.70;;;18.10;54.30;;;;;;6231356;28;20033;-82
2022/11/12 15:11:28;;;;;;;10.60;5.35;;;18.00;54.20;;;;;;6227014;28;20073;-82
2022/11/12 15:14:48;;;;;;;10.30;5.40;;;17.90;54.20;;;;;;6230358;28;20030;-82
2022/11/12 15:18:29;;;;;;;11.68;5.43;;;17.90;54.20;;;;;;6229801;28;20041;-80
2022/11/12 15:22:00;;;;;;;14.35;6.38;;;17.80;54.30;;;;;;6235473;28;20037;-82
2022/11/12 15:25:20;;;;;;;9.43;4.82;;;17.80;54.20;;;;;;6239355;28;20049;-81
2022/11/12 15:28:40;;;;;;;9.00;5.00;;;17.80;54.30;;;;;;6230663;28;20029;-82
2022/11/12 15:32:22;;;;;;;29.77;6.40;;;17.70;54.30;;;;;;6225702;28;20046;-82
2022/11/12 15:35:44;;;;;;;10.60;4.93;;;17.70;54.40;;;;;;6244247;28;20053;-81
2022/11/12 15:39:10;;;;;;;8.73;4.53;;;17.70;54.30;;;;;;6228742;28;20502;-81
2022/11/12 15:42:41;;;;;;;10.48;4.95;;;17.60;54.30;;;;;;6253650;28;20136;-83
2022/11/12 15:46:01;;;;;;;9.32;4.07;;;17.60;54.20;;;;;;6246764;28;20037;-82
2022/11/12 15:49:21;;;;;;;7.80;4.22;;;17.50;54.20;;;;;;6230436;28;20465;-82
2022/11/12 15:52:41;;;;;;;7.82;3.92;;;17.50;54.10;;;;;;6237292;28;20041;-82
2022/11/12 15:56:02;;;;;;;11.45;4.95;;;17.40;54.20;;;;;;6239856;28;20450;-81
2022/11/12 15:59:22;;;;;;;10.57;4.75;;;17.40;54.30;;;;;;6250771;28;20036;-79
2022/11/12 16:02:43;;;;;;;7.28;4.57;;;17.30;54.30;;;;;;6254376;28;20040;-82
2022/11/12 16:06:03;;;;;;;10.85;4.82;;;17.30;55.10;;;;;;6241013;28;20041;-81
2022/11/12 16:09:23;;;;;;;9.13;4.35;;;17.20;54.60;;;;;;6243523;28;20033;-81
2022/11/12 16:12:44;;;;;;;11.80;5.13;;;17.20;54.80;;;;;;6254248;28;20346;-81
2022/11/12 16:16:06;;;;;;;14.38;5.50;;;17.20;54.90;;;;;;6254815;28;20033;-82
2022/11/12 16:19:26;;;;;;;14.65;6.10;;;17.10;55.10;;;;;;6254415;28;20064;-82
2022/11/12 16:22:47;;;;;;;15.95;5.55;;;17.10;55.20;;;;;;6254086;28;20389;-82
2022/11/12 16:26:08;;;;;;;8.95;4.63;;;17.10;55.30;;;;;;6257720;28;20125;-81
2022/11/12 16:29:27;;;;;;;12.48;5.57;;;17.00;55.40;;;;;;6259018;28;20358;-81
2022/11/12 16:32:49;;;;;;;10.38;5.25;;;17.00;55.60;;;;;;6247418;28;20033;-80
2022/11/12 16:36:15;;;;;;;10.77;5.65;;;17.00;55.80;;;;;;6250616;28;20042;-83
2022/11/12 16:39:35;;;;;;;16.08;6.40;;;16.90;55.80;;;;;;6237751;28;20143;-83
2022/11/12 16:42:56;;;;;;;17.38;6.57;;;16.90;56.00;;;;;;6247951;28;20081;-82
2022/11/12 16:46:29;;;;;;;13.15;5.40;;;16.90;56.10;;;;;;6253230;28;20413;-81
2022/11/12 16:49:48;;;;;;;10.00;5.35;;;16.90;56.30;;;;;;6254403;28;20072;-83
2022/11/12 16:53:08;;;;;;;11.18;5.68;;;16.90;56.40;;;;;;6253362;28;20101;-81
2022/11/12 16:56:28;;;;;;;15.88;5.38;;;16.80;56.40;;;;;;6250319;28;20449;-82
2022/11/12 16:59:48;;;;;;;13.52;6.63;;;16.80;56.50;;;;;;6251725;28;20041;-80
2022/11/12 17:03:11;;;;;;;11.35;5.03;;;16.80;56.70;;;;;;6253346;28;20049;-80
2022/11/12 17:06:35;;;;;;;13.10;5.32;;;16.80;56.80;;;;;;6251585;28;20446;-82
2022/11/12 17:09:55;;;;;;;13.00;6.38;;;16.80;56.80;;;;;;6255781;28;20046;-78
2022/11/12 17:13:14;;;;;;;11.63;5.82;;;16.80;56.90;;;;;;6239727;28;20053;-79
2022/11/12 17:16:33;;;;;;;13.48;6.32;;;16.80;56.90;;;;;;6226239;28;20045;-78
2022/11/12 17:19:53;;;;;;;12.93;6.78;;;16.80;57.00;;;;;;6234600;28;20041;-78
2022/11/12 17:23:13;;;;;;;13.38;6.32;;;16.70;57.00;;;;;;6249687;28;20041;-78
2022/11/12 17:26:32;;;;;;;11.23;6.13;;;16.70;57.00;;;;;;6256502;28;20029;-79
2022/11/12 17:29:52;;;;;;;14.20;5.18;;;16.70;57.00;;;;;;6258262;28;20040;-75
2022/11/12 17:33:12;;;;;;;13.65;6.65;;;16.70;57.00;;;;;;6251066;28;20041;-78
2022/11/12 17:36:32;;;;;;;11.40;5.30;;;16.70;57.10;;;;;;6251636;28;20045;-78
2022/11/12 17:39:51;;;;;;;15.68;6.85;;;16.70;57.10;;;;;;6255843;28;20432;-79
2022/11/12 17:43:11;;;;;;;15.20;7.35;;;16.60;57.20;;;;;;6232219;28;20407;-78
2022/11/12 17:46:32;;;;;;;13.63;6.72;;;16.60;57.30;;;;;;6251175;28;20041;-79
2022/11/12 17:49:51;;;;;;;15.80;6.25;;;16.60;57.50;;;;;;6246769;28;20034;-78
2022/11/12 17:53:12;;;;;;;18.13;6.50;;;16.50;57.60;;;;;;6247883;28;20033;-78
2022/11/12 17:56:32;;;;;;;11.90;5.95;;;16.50;57.70;;;;;;6246499;28;20466;-79
2022/11/12 17:59:52;;;;;;;16.13;6.43;;;16.40;57.80;;;;;;6234380;28;20033;-77